»·PEaware :: N313WC KAVX-KSAN

N313WC :: KAVX-KSAN

FLIGHT INFORMATION

Flight Status: Arrived
Operator: Privately registered:
United States
More flights under this callsign
Pilot: Sonny B. (6473)
Aircraft: PIPER PA-30 TWIN COMANCHE
(PA30)
More flights by this aircraft type
Origin: KAVX Catalina
United States
Destination: KSAN San Diego Intl-Lindbergh
United States
More flights between these airports :: More routes between these airports
Route: +SXC V208 OCN V23 MZB
File this flight plan on PilotEdge
Remarks:
Altitude:
(Current/Filed)
5,000ft
Speed:
(Current/Filed)
150kts
Departed: 13-Feb-18 07:57 PM
Arrived: 13-Feb-18 08:52 PM
Distance/Time
Traveled:
74nm/0:55
Distance/Time
To Go:
Arrived

Flight Plot

Page will automatically refresh every two minutes.


Map Options




Map Legend


Flown Route
Filed Route
Departure Airport
Arrival Airport
Navaid (VOR, NDB)
Fix

Horizontal Profiles

Position Reports

Time Latitude Longitude Heading Altitude Ground
Speed
13-Feb-18 19:53 33.403485 -118.415019 323 1605ft 0kts
13-Feb-18 19:54 33.403485 -118.415019 323 1605ft 0kts
13-Feb-18 19:55 33.403485 -118.415019 323 1605ft 0kts
13-Feb-18 19:56 33.403485 -118.415019 323 1605ft 0kts
13-Feb-18 19:57 33.403485 -118.415019 324 1605ft 0kts
13-Feb-18 19:58 33.403486 -118.415020 323 1605ft 0kts
13-Feb-18 19:59 33.403485 -118.415019 324 1605ft 0kts
13-Feb-18 20:00 33.404158 -118.414961 354 1605ft 12kts
13-Feb-18 20:01 33.407258 -118.411358 332 1605ft 5kts
13-Feb-18 20:02 33.407278 -118.411378 317 1605ft 0kts
13-Feb-18 20:03 33.407278 -118.411378 317 1605ft 0kts
13-Feb-18 20:04 33.403354 -118.418477 235 1661ft 101kts
13-Feb-18 20:05 33.385934 -118.446367 220 3099ft 113kts
13-Feb-18 20:06 33.361599 -118.466318 141 3959ft 126kts
13-Feb-18 20:07 33.369916 -118.431578 59 4818ft 120kts
13-Feb-18 20:08 33.375710 -118.389560 96 5021ft 144kts
13-Feb-18 20:09 33.370218 -118.341400 98 5017ft 149kts
13-Feb-18 20:10 33.364020 -118.290189 98 5018ft 160kts
13-Feb-18 20:11 33.356428 -118.237257 100 5017ft 162kts
13-Feb-18 20:12 33.348443 -118.184250 100 5017ft 162kts
13-Feb-18 20:13 33.340465 -118.131207 100 5017ft 162kts
13-Feb-18 20:14 33.332456 -118.077898 100 5017ft 162kts
13-Feb-18 20:15 33.324465 -118.024643 100 5017ft 162kts
13-Feb-18 20:16 33.316480 -117.971369 100 5017ft 163kts
13-Feb-18 20:17 33.308696 -117.918115 99 5017ft 162kts
13-Feb-18 20:18 33.302077 -117.869027 99 5017ft 162kts
13-Feb-18 20:21 33.280640 -117.709271 99 5017ft 163kts
13-Feb-18 20:22 33.273472 -117.655809 99 5017ft 164kts
13-Feb-18 20:23 33.266490 -117.603662 98 5017ft 164kts
13-Feb-18 20:24 33.259464 -117.551099 98 5017ft 164kts
13-Feb-18 20:25 33.252294 -117.497410 98 5017ft 164kts
13-Feb-18 20:26 33.245320 -117.445104 98 5017ft 164kts
13-Feb-18 20:27 33.217319 -117.409990 157 5018ft 163kts
13-Feb-18 20:28 33.175021 -117.390916 159 5017ft 164kts
13-Feb-18 20:29 33.132356 -117.371971 159 5017ft 164kts
13-Feb-18 20:30 33.096841 -117.356200 159 5017ft 164kts
13-Feb-18 20:31 33.047865 -117.334451 159 5017ft 164kts
13-Feb-18 20:34 32.924246 -117.283470 161 5017ft 164kts
13-Feb-18 20:35 32.892667 -117.270861 160 5017ft 164kts
13-Feb-18 20:36 32.843792 -117.250280 160 5017ft 164kts
13-Feb-18 20:37 32.811121 -117.231733 113 5012ft 163kts
13-Feb-18 20:38 32.800478 -117.172037 101 5017ft 164kts
13-Feb-18 20:39 32.792873 -117.127937 101 5017ft 164kts
13-Feb-18 20:40 32.784583 -117.079737 101 5016ft 160kts
13-Feb-18 20:43 32.760143 -116.937091 101 5015ft 135kts
13-Feb-18 20:44 32.752831 -116.894154 101 5016ft 131kts
13-Feb-18 20:45 32.732631 -116.869162 189 5020ft 128kts
13-Feb-18 20:46 32.697294 -116.877436 191 4500ft 131kts
13-Feb-18 20:47 32.662176 -116.885951 191 4021ft 129kts
13-Feb-18 20:48 32.650352 -116.912414 309 3829ft 126kts
13-Feb-18 20:49 32.672540 -116.944388 290 3899ft 126kts
13-Feb-18 20:50 32.682765 -116.977662 284 3652ft 101kts
13-Feb-18 20:51 32.690338 -117.010526 287 3105ft 107kts
13-Feb-18 20:52 32.698088 -117.042853 285 2650ft 106kts
13-Feb-18 20:53 32.705154 -117.074026 285 2211ft 107kts
13-Feb-18 20:54 32.710862 -117.098194 285 1843ft 105kts
13-Feb-18 20:55 32.715969 -117.118520 287 1434ft 98kts
13-Feb-18 20:56 32.721282 -117.138885 286 1083ft 96kts
13-Feb-18 20:57 32.726115 -117.158778 288 609ft 96kts
13-Feb-18 20:58 32.730932 -117.178804 286 76ft 90kts
13-Feb-18 20:59 32.734199 -117.190822 344 20ft 8kts
13-Feb-18 21:00 32.734710 -117.189640 106 20ft 0kts

Navigation Log

Ident Type
1. KAVX Airport
2. SXC Navaid
3. AVOLS Fix
4. PACIF Fix
5. HUBRD Fix
6. OCN Navaid
7. HURSI Fix
8. CARIF Fix
9. MZB Navaid
10. KSAN Airport